sensor_id;sensor_type;location;lat;lon;timestamp;temperature;humidity
39371;DHT22;25099;51.946;4.838;2023-03-01T00:42:18;2.70;99.90
39371;DHT22;25099;51.946;4.838;2023-03-01T00:45:15;2.70;99.90
39371;DHT22;25099;51.946;4.838;2023-03-01T00:47:48;2.70;99.90
39371;DHT22;25099;51.946;4.838;2023-03-01T02:17:57;2.10;99.90
39371;DHT22;25099;51.946;4.838;2023-03-01T02:21:25;2.70;99.90
39371;DHT22;25099;51.946;4.838;2023-03-01T02:24:54;2.20;99.90
39371;DHT22;25099;51.946;4.838;2023-03-01T07:37:41;1.60;99.90
39371;DHT22;25099;51.946;4.838;2023-03-01T07:40:13;1.00;99.90
39371;DHT22;25099;51.946;4.838;2023-03-01T07:42:44;1.50;99.90
39371;DHT22;25099;51.946;4.838;2023-03-01T07:45:15;1.50;99.90
39371;DHT22;25099;51.946;4.838;2023-03-01T07:47:40;1.60;99.90
39371;DHT22;25099;51.946;4.838;2023-03-01T07:50:12;2.50;99.90
39371;DHT22;25099;51.946;4.838;2023-03-01T07:55:17;1.80;99.90
39371;DHT22;25099;51.946;4.838;2023-03-01T07:58:18;2.50;99.90
39371;DHT22;25099;51.946;4.838;2023-03-01T08:00:48;1.90;99.90
39371;DHT22;25099;51.946;4.838;2023-03-01T08:06:21;2.30;99.90
39371;DHT22;25099;51.946;4.838;2023-03-01T08:12:19;2.20;99.90
39371;DHT22;25099;51.946;4.838;2023-03-01T08:22:23;2.30;99.90
39371;DHT22;25099;51.946;4.838;2023-03-01T08:24:49;2.40;99.90
39371;DHT22;25099;51.946;4.838;2023-03-01T08:30:46;2.50;99.90
39371;DHT22;25099;51.946;4.838;2023-03-01T08:33:43;2.60;99.90
39371;DHT22;25099;51.946;4.838;2023-03-01T08:36:43;3.20;99.90
39371;DHT22;25099;51.946;4.838;2023-03-01T08:42:50;2.80;99.90
39371;DHT22;25099;51.946;4.838;2023-03-01T08:57:55;3.20;99.90
39371;DHT22;25099;51.946;4.838;2023-03-01T09:06:11;3.50;99.90
39371;DHT22;25099;51.946;4.838;2023-03-01T09:14:45;3.50;99.90
39371;DHT22;25099;51.946;4.838;2023-03-01T09:34:02;4.30;99.90
39371;DHT22;25099;51.946;4.838;2023-03-01T10:10:40;4.40;99.90
39371;DHT22;25099;51.946;4.838;2023-03-01T10:50:34;5.20;99.90
39371;DHT22;25099;51.946;4.838;2023-03-01T10:53:36;5.40;99.90
39371;DHT22;25099;51.946;4.838;2023-03-01T10:59:37;6.10;99.90
39371;DHT22;25099;51.946;4.838;2023-03-01T11:02:31;4.90;99.90
39371;DHT22;25099;51.946;4.838;2023-03-01T11:08:02;5.40;99.90
39371;DHT22;25099;51.946;4.838;2023-03-01T11:11:33;5.40;99.90
39371;DHT22;25099;51.946;4.838;2023-03-01T11:17:31;5.00;99.90
39371;DHT22;25099;51.946;4.838;2023-03-01T11:23:35;5.10;99.90
39371;DHT22;25099;51.946;4.838;2023-03-01T11:26:34;5.60;99.90
39371;DHT22;25099;51.946;4.838;2023-03-01T11:31:48;5.80;99.90
39371;DHT22;25099;51.946;4.838;2023-03-01T11:40:24;5.90;99.90
39371;DHT22;25099;51.946;4.838;2023-03-01T11:48:40;6.60;99.90
39371;DHT22;25099;51.946;4.838;2023-03-01T11:51:37;6.70;99.90
39371;DHT22;25099;51.946;4.838;2023-03-01T12:05:51;6.30;99.90
39371;DHT22;25099;51.946;4.838;2023-03-01T12:16:40;6.50;99.90
39371;DHT22;25099;51.946;4.838;2023-03-01T12:19:46;6.50;99.90
39371;DHT22;25099;51.946;4.838;2023-03-01T12:22:37;6.50;99.90
39371;DHT22;25099;51.946;4.838;2023-03-01T12:34:14;6.80;99.90
39371;DHT22;25099;51.946;4.838;2023-03-01T12:36:58;6.80;99.90
39371;DHT22;25099;51.946;4.838;2023-03-01T12:45:53;6.90;99.90
39371;DHT22;25099;51.946;4.838;2023-03-01T12:51:56;7.00;99.90
39371;DHT22;25099;51.946;4.838;2023-03-01T12:54:29;7.60;99.90
39371;DHT22;25099;51.946;4.838;2023-03-01T12:56:57;7.60;99.90
39371;DHT22;25099;51.946;4.838;2023-03-01T13:02:27;7.20;99.70
39371;DHT22;25099;51.946;4.838;2023-03-01T13:05:00;7.90;99.90
39371;DHT22;25099;51.946;4.838;2023-03-01T13:08:08;7.80;99.80
39371;DHT22;25099;51.946;4.838;2023-03-01T13:11:02;7.40;98.50
39371;DHT22;25099;51.946;4.838;2023-03-01T13:13:29;8.80;98.50
39371;DHT22;25099;51.946;4.838;2023-03-01T13:19:29;8.10;99.00
39371;DHT22;25099;51.946;4.838;2023-03-01T13:22:00;7.60;99.10
39371;DHT22;25099;51.946;4.838;2023-03-01T13:31:06;7.70;97.60
39371;DHT22;25099;51.946;4.838;2023-03-01T13:39:38;8.50;97.80
39371;DHT22;25099;51.946;4.838;2023-03-01T13:42:38;7.80;96.70
39371;DHT22;25099;51.946;4.838;2023-03-01T13:45:38;7.50;97.10
39371;DHT22;25099;51.946;4.838;2023-03-01T13:48:21;7.90;97.10
39371;DHT22;25099;51.946;4.838;2023-03-01T13:51:41;8.50;96.40
39371;DHT22;25099;51.946;4.838;2023-03-01T13:54:12;8.00;96.70
39371;DHT22;25099;51.946;4.838;2023-03-01T13:56:43;8.90;96.60
39371;DHT22;25099;51.946;4.838;2023-03-01T13:59:18;8.70;96.00
39371;DHT22;25099;51.946;4.838;2023-03-01T14:01:44;8.60;97.50
39371;DHT22;25099;51.946;4.838;2023-03-01T14:04:22;8.80;97.60
39371;DHT22;25099;51.946;4.838;2023-03-01T14:06:48;8.80;96.90
39371;DHT22;25099;51.946;4.838;2023-03-01T14:09:24;8.70;96.80
39371;DHT22;25099;51.946;4.838;2023-03-01T14:11:54;8.30;97.10
39371;DHT22;25099;51.946;4.838;2023-03-01T14:14:51;8.90;97.00
39371;DHT22;25099;51.946;4.838;2023-03-01T14:35:51;8.70;94.10
39371;DHT22;25099;51.946;4.838;2023-03-01T15:23:52;9.60;96.30
39371;DHT22;25099;51.946;4.838;2023-03-01T15:28:37;9.70;95.00
39371;DHT22;25099;51.946;4.838;2023-03-01T15:31:28;9.60;93.30
39371;DHT22;25099;51.946;4.838;2023-03-01T15:34:28;9.50;94.10
39371;DHT22;25099;51.946;4.838;2023-03-01T15:36:59;9.90;94.80
39371;DHT22;25099;51.946;4.838;2023-03-01T15:47:56;9.60;94.00
39371;DHT22;25099;51.946;4.838;2023-03-01T15:50:27;9.60;93.90
39371;DHT22;25099;51.946;4.838;2023-03-01T15:53:10;8.90;94.00
39371;DHT22;25099;51.946;4.838;2023-03-01T15:55:36;10.00;95.60
39371;DHT22;25099;51.946;4.838;2023-03-01T15:58:21;9.50;94.60
39371;DHT22;25099;51.946;4.838;2023-03-01T16:00:50;9.80;94.50
39371;DHT22;25099;51.946;4.838;2023-03-01T16:03:53;9.80;94.70
39371;DHT22;25099;51.946;4.838;2023-03-01T16:06:19;11.20;96.10
39371;DHT22;25099;51.946;4.838;2023-03-01T16:08:45;9.90;95.40
39371;DHT22;25099;51.946;4.838;2023-03-01T16:11:15;9.90;95.00
39371;DHT22;25099;51.946;4.838;2023-03-01T16:13:53;9.80;94.50
39371;DHT22;25099;51.946;4.838;2023-03-01T16:16:18;10.00;95.50
39371;DHT22;25099;51.946;4.838;2023-03-01T16:18:46;9.70;94.20
39371;DHT22;25099;51.946;4.838;2023-03-01T16:21:28;9.60;94.40
39371;DHT22;25099;51.946;4.838;2023-03-01T16:23:53;10.20;94.60
39371;DHT22;25099;51.946;4.838;2023-03-01T16:26:25;10.80;95.00
39371;DHT22;25099;51.946;4.838;2023-03-01T16:28:55;9.70;95.00
39371;DHT22;25099;51.946;4.838;2023-03-01T16:31:27;9.00;95.40
39371;DHT22;25099;51.946;4.838;2023-03-01T16:33:55;9.80;95.40
39371;DHT22;25099;51.946;4.838;2023-03-01T16:36:42;9.80;95.60
39371;DHT22;25099;51.946;4.838;2023-03-01T16:39:09;9.20;95.90
39371;DHT22;25099;51.946;4.838;2023-03-01T16:41:34;9.10;96.00
39371;DHT22;25099;51.946;4.838;2023-03-01T16:44:00;9.40;96.00
39371;DHT22;25099;51.946;4.838;2023-03-01T16:46:27;8.90;96.10
39371;DHT22;25099;51.946;4.838;2023-03-01T16:48:54;8.90;96.20
39371;DHT22;25099;51.946;4.838;2023-03-01T16:51:20;8.80;96.20
39371;DHT22;25099;51.946;4.838;2023-03-01T16:53:46;8.70;96.30
39371;DHT22;25099;51.946;4.838;2023-03-01T16:56:18;8.60;96.40
39371;DHT22;25099;51.946;4.838;2023-03-01T16:58:48;8.40;96.30
39371;DHT22;25099;51.946;4.838;2023-03-01T17:01:20;8.40;96.30
39371;DHT22;25099;51.946;4.838;2023-03-01T17:03:49;8.90;96.50
39371;DHT22;25099;51.946;4.838;2023-03-01T17:06:20;8.20;96.50
39371;DHT22;25099;51.946;4.838;2023-03-01T17:08:50;8.20;96.50
39371;DHT22;25099;51.946;4.838;2023-03-01T17:11:18;8.10;96.50
39371;DHT22;25099;51.946;4.838;2023-03-01T17:13:44;8.00;96.40
39371;DHT22;25099;51.946;4.838;2023-03-01T17:16:13;7.90;96.40
39371;DHT22;25099;51.946;4.838;2023-03-01T17:18:39;7.90;96.40
39371;DHT22;25099;51.946;4.838;2023-03-01T17:21:06;7.80;96.40
39371;DHT22;25099;51.946;4.838;2023-03-01T17:23:32;7.80;96.50
39371;DHT22;25099;51.946;4.838;2023-03-01T17:25:58;7.70;96.30
39371;DHT22;25099;51.946;4.838;2023-03-01T17:28:26;7.70;96.50
39371;DHT22;25099;51.946;4.838;2023-03-01T17:37:06;7.40;98.00
39371;DHT22;25099;51.946;4.838;2023-03-01T17:39:31;8.10;98.30
39371;DHT22;25099;51.946;4.838;2023-03-01T17:42:01;7.70;98.10
39371;DHT22;25099;51.946;4.838;2023-03-01T17:44:31;8.00;98.00
39371;DHT22;25099;51.946;4.838;2023-03-01T17:47:02;7.10;97.90
39371;DHT22;25099;51.946;4.838;2023-03-01T17:49:32;7.50;98.10
39371;DHT22;25099;51.946;4.838;2023-03-01T17:52:03;6.80;98.20
39371;DHT22;25099;51.946;4.838;2023-03-01T17:54:35;7.00;98.40
39371;DHT22;25099;51.946;4.838;2023-03-01T17:57:03;6.90;98.50
39371;DHT22;25099;51.946;4.838;2023-03-01T17:59:44;6.40;98.30
39371;DHT22;25099;51.946;4.838;2023-03-01T18:02:11;7.40;98.50
39371;DHT22;25099;51.946;4.838;2023-03-01T18:04:37;6.80;98.40
39371;DHT22;25099;51.946;4.838;2023-03-01T18:07:08;6.50;98.30
39371;DHT22;25099;51.946;4.838;2023-03-01T18:09:40;7.90;98.80
39371;DHT22;25099;51.946;4.838;2023-03-01T18:12:15;6.90;98.80
39371;DHT22;25099;51.946;4.838;2023-03-01T18:14:50;6.60;98.60
39371;DHT22;25099;51.946;4.838;2023-03-01T18:17:22;6.70;98.60
39371;DHT22;25099;51.946;4.838;2023-03-01T18:19:56;7.20;98.80
39371;DHT22;25099;51.946;4.838;2023-03-01T18:22:23;7.30;99.10
39371;DHT22;25099;51.946;4.838;2023-03-01T18:24:58;7.00;99.00
39371;DHT22;25099;51.946;4.838;2023-03-01T18:27:32;7.30;99.30
39371;DHT22;25099;51.946;4.838;2023-03-01T18:29:58;6.90;99.30
39371;DHT22;25099;51.946;4.838;2023-03-01T18:32:30;6.80;99.40
39371;DHT22;25099;51.946;4.838;2023-03-01T18:35:03;7.10;99.60
39371;DHT22;25099;51.946;4.838;2023-03-01T18:37:31;7.00;99.70
39371;DHT22;25099;51.946;4.838;2023-03-01T18:40:06;6.30;99.60
39371;DHT22;25099;51.946;4.838;2023-03-01T18:42:32;7.00;99.60
39371;DHT22;25099;51.946;4.838;2023-03-01T18:44:58;7.30;99.70
39371;DHT22;25099;51.946;4.838;2023-03-01T18:47:26;6.20;99.50
39371;DHT22;25099;51.946;4.838;2023-03-01T18:49:55;6.60;99.60
39371;DHT22;25099;51.946;4.838;2023-03-01T18:52:23;6.20;99.50
39371;DHT22;25099;51.946;4.838;2023-03-01T18:54:57;6.60;99.70
39371;DHT22;25099;51.946;4.838;2023-03-01T18:57:31;7.30;99.80
39371;DHT22;25099;51.946;4.838;2023-03-01T18:59:57;6.60;99.50
39371;DHT22;25099;51.946;4.838;2023-03-01T19:02:28;6.10;99.40
39371;DHT22;25099;51.946;4.838;2023-03-01T19:04:59;6.60;99.60
39371;DHT22;25099;51.946;4.838;2023-03-01T19:07:28;6.00;99.50
39371;DHT22;25099;51.946;4.838;2023-03-01T19:10:00;6.50;99.50
39371;DHT22;25099;51.946;4.838;2023-03-01T19:12:41;6.10;99.60
39371;DHT22;25099;51.946;4.838;2023-03-01T19:15:09;6.00;99.80
39371;DHT22;25099;51.946;4.838;2023-03-01T19:17:41;6.00;99.70
39371;DHT22;25099;51.946;4.838;2023-03-01T19:20:07;6.30;99.70
39371;DHT22;25099;51.946;4.838;2023-03-01T19:22:32;5.80;99.90
39371;DHT22;25099;51.946;4.838;2023-03-01T19:24:58;5.90;99.80
39371;DHT22;25099;51.946;4.838;2023-03-01T19:27:24;5.90;99.70
39371;DHT22;25099;51.946;4.838;2023-03-01T19:29:49;5.90;99.70
39371;DHT22;25099;51.946;4.838;2023-03-01T19:32:15;6.20;99.80
39371;DHT22;25099;51.946;4.838;2023-03-01T19:34:40;6.40;99.90
39371;DHT22;25099;51.946;4.838;2023-03-01T19:37:06;5.80;99.90
39371;DHT22;25099;51.946;4.838;2023-03-01T19:39:34;5.80;99.90
39371;DHT22;25099;51.946;4.838;2023-03-01T19:42:00;5.70;99.90
39371;DHT22;25099;51.946;4.838;2023-03-01T19:44:25;5.70;99.90
39371;DHT22;25099;51.946;4.838;2023-03-01T19:46:53;5.60;99.90
39371;DHT22;25099;51.946;4.838;2023-03-01T19:49:19;5.60;99.90
39371;DHT22;25099;51.946;4.838;2023-03-01T19:51:44;5.60;99.90
39371;DHT22;25099;51.946;4.838;2023-03-01T19:54:10;5.50;99.90
39371;DHT22;25099;51.946;4.838;2023-03-01T19:56:39;6.00;99.90
39371;DHT22;25099;51.946;4.838;2023-03-01T19:59:05;5.40;99.90
39371;DHT22;25099;51.946;4.838;2023-03-01T20:01:32;5.40;99.90
39371;DHT22;25099;51.946;4.838;2023-03-01T20:03:59;5.40;99.90
39371;DHT22;25099;51.946;4.838;2023-03-01T20:06:25;5.40;99.90
39371;DHT22;25099;51.946;4.838;2023-03-01T20:08:54;5.20;99.90
39371;DHT22;25099;51.946;4.838;2023-03-01T20:11:23;5.80;99.90
39371;DHT22;25099;51.946;4.838;2023-03-01T20:14:00;5.10;99.90
39371;DHT22;25099;51.946;4.838;2023-03-01T20:16:26;5.20;99.90
39371;DHT22;25099;51.946;4.838;2023-03-01T20:18:54;5.80;99.90
39371;DHT22;25099;51.946;4.838;2023-03-01T20:21:27;5.10;99.90
39371;DHT22;25099;51.946;4.838;2023-03-01T20:24:06;5.50;99.90
39371;DHT22;25099;51.946;4.838;2023-03-01T20:26:32;4.90;99.90
39371;DHT22;25099;51.946;4.838;2023-03-01T20:29:06;5.50;99.90
39371;DHT22;25099;51.946;4.838;2023-03-01T20:31:38;4.80;99.90
39371;DHT22;25099;51.946;4.838;2023-03-01T20:34:05;5.00;99.90
39371;DHT22;25099;51.946;4.838;2023-03-01T20:36:40;6.20;99.90
39371;DHT22;25099;51.946;4.838;2023-03-01T20:39:16;4.80;99.90
39371;DHT22;25099;51.946;4.838;2023-03-01T20:41:42;4.80;99.90
39371;DHT22;25099;51.946;4.838;2023-03-01T20:44:07;4.80;99.90
39371;DHT22;25099;51.946;4.838;2023-03-01T20:46:34;4.80;99.90
39371;DHT22;25099;51.946;4.838;2023-03-01T20:49:00;4.80;99.90
39371;DHT22;25099;51.946;4.838;2023-03-01T20:51:26;4.70;99.90
39371;DHT22;25099;51.946;4.838;2023-03-01T20:53:51;5.10;99.90
39371;DHT22;25099;51.946;4.838;2023-03-01T20:56:18;4.70;99.90
39371;DHT22;25099;51.946;4.838;2023-03-01T20:58:44;4.70;99.90
39371;DHT22;25099;51.946;4.838;2023-03-01T21:01:15;4.70;99.90
39371;DHT22;25099;51.946;4.838;2023-03-01T21:03:40;4.70;99.90
39371;DHT22;25099;51.946;4.838;2023-03-01T21:06:06;4.80;99.90
39371;DHT22;25099;51.946;4.838;2023-03-01T21:08:33;4.70;99.90
39371;DHT22;25099;51.946;4.838;2023-03-01T21:10:59;4.70;99.90
39371;DHT22;25099;51.946;4.838;2023-03-01T21:13:25;4.70;99.90
39371;DHT22;25099;51.946;4.838;2023-03-01T21:15:54;4.80;99.90
39371;DHT22;25099;51.946;4.838;2023-03-01T21:18:20;4.70;99.90
39371;DHT22;25099;51.946;4.838;2023-03-01T21:21:31;4.70;99.90
39371;DHT22;25099;51.946;4.838;2023-03-01T21:23:35;4.70;99.90
39371;DHT22;25099;51.946;4.838;2023-03-01T21:26:19;4.70;99.90
39371;DHT22;25099;51.946;4.838;2023-03-01T21:28:49;4.60;99.90
39371;DHT22;25099;51.946;4.838;2023-03-01T21:31:18;4.60;99.90
39371;DHT22;25099;51.946;4.838;2023-03-01T21:33:46;4.60;99.90
39371;DHT22;25099;51.946;4.838;2023-03-01T21:36:12;4.60;99.90
39371;DHT22;25099;51.946;4.838;2023-03-01T21:38:40;4.50;99.90
39371;DHT22;25099;51.946;4.838;2023-03-01T21:41:15;4.50;99.90
39371;DHT22;25099;51.946;4.838;2023-03-01T21:43:42;4.50;99.90
39371;DHT22;25099;51.946;4.838;2023-03-01T21:46:11;4.40;99.90
39371;DHT22;25099;51.946;4.838;2023-03-01T21:48:44;4.40;99.90
39371;DHT22;25099;51.946;4.838;2023-03-01T21:51:12;4.50;99.90
39371;DHT22;25099;51.946;4.838;2023-03-01T21:53:38;4.50;99.90
39371;DHT22;25099;51.946;4.838;2023-03-01T21:56:04;4.30;99.90
39371;DHT22;25099;51.946;4.838;2023-03-01T21:58:36;4.20;99.90
39371;DHT22;25099;51.946;4.838;2023-03-01T22:01:13;4.90;99.90
39371;DHT22;25099;51.946;4.838;2023-03-01T22:03:39;4.20;99.90
39371;DHT22;25099;51.946;4.838;2023-03-01T22:06:21;4.20;99.90
39371;DHT22;25099;51.946;4.838;2023-03-01T22:08:51;4.70;99.90
39371;DHT22;25099;51.946;4.838;2023-03-01T22:11:21;4.20;99.90
39371;DHT22;25099;51.946;4.838;2023-03-01T22:13:56;4.50;99.90
39371;DHT22;25099;51.946;4.838;2023-03-01T22:16:24;4.00;99.90
39371;DHT22;25099;51.946;4.838;2023-03-01T22:18:53;4.80;99.90
39371;DHT22;25099;51.946;4.838;2023-03-01T22:21:31;4.50;99.90
39371;DHT22;25099;51.946;4.838;2023-03-01T22:23:57;3.70;99.90
39371;DHT22;25099;51.946;4.838;2023-03-01T22:26:29;4.00;99.90
39371;DHT22;25099;51.946;4.838;2023-03-01T22:29:00;3.90;99.90
39371;DHT22;25099;51.946;4.838;2023-03-01T22:31:28;4.40;99.90
39371;DHT22;25099;51.946;4.838;2023-03-01T22:33:58;4.30;99.90
39371;DHT22;25099;51.946;4.838;2023-03-01T22:36:25;4.00;99.90
39371;DHT22;25099;51.946;4.838;2023-03-01T22:38:56;4.30;99.90
39371;DHT22;25099;51.946;4.838;2023-03-01T22:41:31;3.90;99.90
39371;DHT22;25099;51.946;4.838;2023-03-01T22:43:57;5.30;99.90
39371;DHT22;25099;51.946;4.838;2023-03-01T22:46:24;4.70;99.90
39371;DHT22;25099;51.946;4.838;2023-03-01T22:48:49;3.70;99.90
39371;DHT22;25099;51.946;4.838;2023-03-01T22:51:21;3.80;99.90
39371;DHT22;25099;51.946;4.838;2023-03-01T22:53:51;3.70;99.90
39371;DHT22;25099;51.946;4.838;2023-03-01T22:56:22;3.70;99.90
39371;DHT22;25099;51.946;4.838;2023-03-01T22:58:48;4.30;99.90
39371;DHT22;25099;51.946;4.838;2023-03-01T23:01:20;4.00;99.90
39371;DHT22;25099;51.946;4.838;2023-03-01T23:03:46;3.60;99.90
39371;DHT22;25099;51.946;4.838;2023-03-01T23:06:13;3.60;99.90
39371;DHT22;25099;51.946;4.838;2023-03-01T23:08:39;3.50;99.90
39371;DHT22;25099;51.946;4.838;2023-03-01T23:11:11;3.60;99.90
39371;DHT22;25099;51.946;4.838;2023-03-01T23:13:37;3.60;99.90
39371;DHT22;25099;51.946;4.838;2023-03-01T23:16:03;3.60;99.90
39371;DHT22;25099;51.946;4.838;2023-03-01T23:18:29;3.50;99.90
39371;DHT22;25099;51.946;4.838;2023-03-01T23:20:55;3.50;99.90
39371;DHT22;25099;51.946;4.838;2023-03-01T23:23:20;3.80;99.90
39371;DHT22;25099;51.946;4.838;2023-03-01T23:25:57;3.50;99.90
39371;DHT22;25099;51.946;4.838;2023-03-01T23:28:24;3.50;99.90
39371;DHT22;25099;51.946;4.838;2023-03-01T23:30:55;3.50;99.90
39371;DHT22;25099;51.946;4.838;2023-03-01T23:33:21;3.50;99.90
39371;DHT22;25099;51.946;4.838;2023-03-01T23:35:46;3.50;99.90
39371;DHT22;25099;51.946;4.838;2023-03-01T23:38:12;4.20;99.90
39371;DHT22;25099;51.946;4.838;2023-03-01T23:40:38;3.50;99.90
39371;DHT22;25099;51.946;4.838;2023-03-01T23:43:03;3.90;99.90
39371;DHT22;25099;51.946;4.838;2023-03-01T23:45:29;3.40;99.90
39371;DHT22;25099;51.946;4.838;2023-03-01T23:47:54;3.60;99.90
39371;DHT22;25099;51.946;4.838;2023-03-01T23:50:21;3.90;99.90
39371;DHT22;25099;51.946;4.838;2023-03-01T23:52:46;3.40;99.90
39371;DHT22;25099;51.946;4.838;2023-03-01T23:55:13;3.30;99.90
39371;DHT22;25099;51.946;4.838;2023-03-01T23:57:40;3.30;99.90
